Greenville, SC

8:22 AM EDT on April 26, 2015 (GMT -0400)
Greenville-Spartanburg International | | Change Station
CLOSE
Current Station
Airport
Location: Greenville/Spartanburg,
Elevation: 971 ft
Nearby Weather Stations

Elev 971 ft 34.88 °N, 82.22 °W | Updated 20 minutes ago

Partly Cloudy
Partly Cloudy
62 °F
Feels Like 62 °F
N
0
Wind Variable Wind from North

Today
High -- | Low -- °F
--% Chance of Precip.
Yesterday
High -- | Low -- °F
Precip. -- in
6:44 AM 8:10 PM
First Quarter, 55% visible
Pressure 29.60 in
Visibility 3.0 miles
Clouds Few 300 ft
Dew Point 62 °F
Humidity 100%
Rainfall 0.00 in
Snow Depth Not available.
UV 1 out of 12
Pollen 10.10 out of 12
Air Quality Not available.
Flu Activity Local Activity
SPECI KGSP 261202Z 00000KT 3SM BR FEW003 17/17 A2960 RMK AO2 T01670167

More Conditions Fewer Conditions

Pressure 29.60 in
Visibility 3.0 miles
Clouds Few 300 ft
Dew Point 62 °F
Humidity 100%
Rainfall 0.00 in
Snow Depth Not available.
UV 1 out of 12
Pollen 10.10 out of 12
Air Quality Not available.
Flu Activity Local Activity
SPECI KGSP 261202Z 00000KT 3SM BR FEW003 17/17 A2960 RMK AO2 T01670167

More Conditions Fewer Conditions

The full scope of the disaster following a powerful 7.8-magnitude earthquake in Nepal may not come into view for days, but global charities are already sending emergency aid. Click to see how you can help.

10-Day Weather Forecast

Almanac

Astronomy

Apr. 26, 2015 Rise Set
Actual Time
Civil Twilight
Nautical Twilight
Astronomical Twilight
Moon
Length of Visible Light
Length of Day
Tomorrow will be .
, % of the Moon is Illuminated

Today's Extremes

State Highs State Lows

Community

WunderPhotos

Upload Photos

1,816,969 photos uploaded!

WunderBlogs® & News

Nearby

Air Quality

  Air Quality AQ Index Pollutant
Not available.

Snow Depth

Station Depth Elevation

Earthquake Activity

City Distance Mag. Time & Date
Minimum magnitude displayed is 2.5.

Coastal Water Temperatures

Place Temperature

Stations

Nearby Weather Stations

Station Location Temp. Windchill Dew Point Humidity Wind Precip. Elev Updated Type